createdAt,value
2022-10-04T00:01:16.198Z,73.69
2022-10-04T00:04:46.109Z,72.80
2022-10-04T00:08:25.587Z,70.09
2022-10-04T00:11:53.240Z,69.56
2022-10-04T00:15:25.573Z,64.98
2022-10-04T00:18:49.236Z,66.67
2022-10-04T00:22:41.779Z,66.10
2022-10-04T00:26:24.355Z,66.53
2022-10-04T00:30:10.710Z,67.92
2022-10-04T00:33:50.256Z,69.03
2022-10-04T00:37:17.493Z,68.53
2022-10-04T00:40:46.430Z,69.07
2022-10-04T00:44:19.183Z,68.98
2022-10-04T00:47:46.726Z,68.93
2022-10-04T00:51:12.022Z,69.78
2022-10-04T00:54:41.308Z,69.82
2022-10-04T00:58:07.480Z,68.72
2022-10-04T01:01:30.308Z,70.60
2022-10-04T01:04:52.381Z,70.91
2022-10-04T01:08:18.651Z,71.66
2022-10-04T01:11:48.260Z,71.63
2022-10-04T01:15:21.968Z,71.14
2022-10-04T01:18:43.792Z,71.28
2022-10-04T01:22:05.286Z,72.10
2022-10-04T01:25:47.276Z,74.31
2022-10-04T01:29:13.645Z,74.64
2022-10-04T01:32:41.578Z,75.04
2022-10-04T01:36:03.137Z,74.72
2022-10-04T01:39:26.178Z,74.87
2022-10-04T01:42:56.794Z,74.38
2022-10-04T01:46:27.640Z,74.53
2022-10-04T01:49:53.261Z,74.46
2022-10-04T01:53:42.797Z,74.65
2022-10-04T01:57:15.201Z,74.16
2022-10-04T02:00:41.769Z,74.41
2022-10-04T02:04:18.573Z,75.03
2022-10-04T02:07:44.702Z,79.67
2022-10-04T02:11:07.400Z,78.33
2022-10-04T02:14:33.290Z,76.24
2022-10-04T02:17:56.039Z,75.52
2022-10-04T02:21:18.963Z,73.91
2022-10-04T02:24:50.093Z,69.50
2022-10-04T02:28:14.031Z,69.74
2022-10-04T02:31:57.023Z,70.30
2022-10-04T02:35:24.131Z,71.18
2022-10-04T02:39:14.468Z,71.28
2022-10-04T02:43:02.719Z,74.20
2022-10-04T02:46:32.762Z,73.95
2022-10-04T02:50:08.604Z,73.73
2022-10-04T02:53:37.945Z,74.52
2022-10-04T02:56:59.902Z,75.95
2022-10-04T03:00:27.339Z,75.27
2022-10-04T03:03:48.976Z,76.01
2022-10-04T03:07:13.077Z,75.63
2022-10-04T03:10:38.379Z,75.34
2022-10-04T03:14:02.869Z,76.11
2022-10-04T03:17:25.160Z,76.58
2022-10-04T03:20:47.497Z,76.63
2022-10-04T03:24:18.812Z,76.66
2022-10-04T03:27:40.455Z,76.38
2022-10-04T03:31:02.176Z,76.02
2022-10-04T03:34:23.692Z,76.38
2022-10-04T03:37:47.779Z,75.78
2022-10-04T03:41:10.856Z,76.18
2022-10-04T03:44:32.698Z,76.02
2022-10-04T03:47:58.655Z,75.65
2022-10-04T03:51:23.216Z,75.73
2022-10-04T03:54:44.856Z,75.72
2022-10-04T03:58:10.627Z,76.07
2022-10-04T04:01:40.940Z,75.81
2022-10-04T04:05:37.395Z,76.30
2022-10-04T04:09:01.933Z,79.85
2022-10-04T04:12:39.437Z,79.56
2022-10-04T04:16:09.717Z,79.06
2022-10-04T04:19:33.749Z,77.87
2022-10-04T04:22:59.151Z,74.49
2022-10-04T04:26:27.409Z,75.72
2022-10-04T04:29:54.669Z,71.20
2022-10-04T04:33:26.840Z,71.48
2022-10-04T04:36:48.545Z,72.28
2022-10-04T04:40:25.392Z,72.56
2022-10-04T04:43:50.167Z,73.76
2022-10-04T04:47:34.027Z,74.54
2022-10-04T04:50:58.022Z,76.72
2022-10-04T04:54:29.976Z,77.10
2022-10-04T04:57:56.054Z,77.03
2022-10-04T05:01:25.832Z,76.36
2022-10-04T05:04:50.485Z,77.72
2022-10-04T05:08:36.007Z,78.48
2022-10-04T05:12:10.469Z,77.48
2022-10-04T05:15:35.286Z,77.38
2022-10-04T05:19:01.677Z,76.12
2022-10-04T05:22:27.339Z,75.29
2022-10-04T05:25:50.598Z,75.78
2022-10-04T05:29:18.298Z,74.64
2022-10-04T05:32:58.392Z,75.23
2022-10-04T05:36:22.240Z,74.85
2022-10-04T05:39:51.889Z,75.65
2022-10-04T05:43:28.341Z,75.11
2022-10-04T05:46:50.281Z,76.05
2022-10-04T05:50:33.059Z,75.85
2022-10-04T05:53:59.788Z,76.19
2022-10-04T05:57:27.733Z,74.82
2022-10-04T06:01:15.397Z,74.84
2022-10-04T06:04:52.366Z,74.58
2022-10-04T06:08:45.911Z,75.17
2022-10-04T06:12:16.685Z,74.63
2022-10-04T06:15:56.222Z,74.46
2022-10-04T06:19:48.246Z,73.78
2022-10-04T06:23:19.189Z,74.56
2022-10-04T06:26:46.749Z,74.48
2022-10-04T06:30:21.040Z,75.62
2022-10-04T06:34:03.276Z,74.77
2022-10-04T06:37:27.633Z,75.04
2022-10-04T06:40:55.385Z,75.19
2022-10-04T06:44:26.051Z,75.26
2022-10-04T06:48:06.216Z,75.01
2022-10-04T06:51:57.389Z,74.48
2022-10-04T06:55:18.916Z,74.74
2022-10-04T06:58:58.504Z,75.44
2022-10-04T07:02:39.690Z,75.43
2022-10-04T07:06:07.270Z,75.51
2022-10-04T07:09:29.272Z,75.05
2022-10-04T07:13:02.321Z,75.80
2022-10-04T07:16:35.001Z,74.31
2022-10-04T07:19:58.353Z,75.29
2022-10-04T07:23:37.160Z,74.55
2022-10-04T07:27:04.433Z,75.14
2022-10-04T07:30:38.733Z,75.57
2022-10-04T07:34:09.283Z,75.76
2022-10-04T07:37:39.310Z,75.71
2022-10-04T07:41:13.097Z,75.34
2022-10-04T07:44:40.995Z,75.14
2022-10-04T07:48:10.078Z,74.93
2022-10-04T07:51:50.164Z,74.13
2022-10-04T07:55:42.970Z,70.93
2022-10-04T07:59:23.130Z,68.92
2022-10-04T08:03:03.978Z,70.43
2022-10-04T08:06:44.844Z,70.93
2022-10-04T08:10:31.860Z,70.84
2022-10-04T08:14:23.742Z,70.08
2022-10-04T08:18:29.903Z,70.13
2022-10-04T08:21:56.709Z,70.23
2022-10-04T08:25:45.281Z,70.53
2022-10-04T08:29:44.617Z,69.97
2022-10-04T08:33:34.706Z,71.05
2022-10-04T08:37:43.702Z,69.28
2022-10-04T08:41:10.664Z,69.32
2022-10-04T08:44:44.018Z,70.50
2022-10-04T08:48:18.311Z,70.55
2022-10-04T08:51:45.636Z,69.29
2022-10-04T08:55:25.895Z,70.60
2022-10-04T08:59:38.372Z,69.69
2022-10-04T09:03:30.431Z,69.00
2022-10-04T09:07:06.418Z,69.21
2022-10-04T09:10:52.329Z,68.80
2022-10-04T09:14:48.525Z,69.58
2022-10-04T09:18:13.014Z,69.34
2022-10-04T09:21:58.889Z,69.87
2022-10-04T09:25:56.795Z,67.56
2022-10-04T09:29:53.614Z,67.42
2022-10-04T09:33:37.083Z,66.36
2022-10-04T09:37:16.400Z,66.07
2022-10-04T09:40:50.148Z,64.76
2022-10-04T09:44:37.923Z,62.21
2022-10-04T09:48:08.513Z,60.63
2022-10-04T09:51:35.978Z,59.67
2022-10-04T09:55:00.542Z,60.52
2022-10-04T09:59:03.059Z,60.02
2022-10-04T10:02:38.718Z,62.16
2022-10-04T10:06:41.163Z,62.14
2022-10-04T10:10:47.942Z,62.65
2022-10-04T10:14:27.141Z,62.82
2022-10-04T10:18:00.930Z,63.15
2022-10-04T10:21:23.766Z,64.20
2022-10-04T10:25:08.262Z,63.15
2022-10-04T10:28:29.788Z,61.51
2022-10-04T10:32:04.373Z,59.73
2022-10-04T10:35:52.600Z,62.06
2022-10-04T10:39:51.540Z,60.79
2022-10-04T10:43:41.628Z,57.29
2022-10-04T10:47:33.356Z,52.65
2022-10-04T10:51:16.062Z,52.58
2022-10-04T10:54:59.772Z,51.42
2022-10-04T10:59:01.804Z,52.45
2022-10-04T11:02:48.980Z,50.16
2022-10-04T11:06:14.023Z,48.48
2022-10-04T11:09:47.389Z,50.30
2022-10-04T11:13:14.857Z,51.26
2022-10-04T11:17:20.877Z,52.60
2022-10-04T11:21:18.223Z,51.98
2022-10-04T11:24:48.757Z,54.27
2022-10-04T11:28:31.772Z,55.09
2022-10-04T11:32:05.600Z,57.67
2022-10-04T11:35:39.367Z,57.09
2022-10-04T11:39:30.300Z,55.04
2022-10-04T11:43:21.657Z,53.30
2022-10-04T11:46:49.427Z,55.41
2022-10-04T11:50:30.006Z,54.45
2022-10-04T11:54:03.567Z,52.73
2022-10-04T11:57:33.497Z,51.33
2022-10-04T12:01:32.530Z,48.93
2022-10-04T12:05:21.437Z,47.14
2022-10-04T12:08:48.910Z,45.16
2022-10-04T12:12:41.297Z,49.59
2022-10-04T12:16:30.242Z,52.13
2022-10-04T12:19:54.825Z,52.98
2022-10-04T12:23:22.412Z,53.54
2022-10-04T12:26:49.146Z,52.13
2022-10-04T12:30:22.670Z,51.72
2022-10-04T12:34:06.041Z,49.91
2022-10-04T12:37:57.181Z,54.05
2022-10-04T12:41:34.882Z,54.05
2022-10-04T12:45:38.574Z,55.95
2022-10-04T12:49:25.926Z,56.52
2022-10-04T12:53:14.490Z,56.21
2022-10-04T12:57:16.396Z,55.44
2022-10-04T13:00:43.817Z,53.19
2022-10-04T13:04:22.334Z,51.95
2022-10-04T13:07:52.589Z,53.57
2022-10-04T13:11:20.729Z,52.18
2022-10-04T13:15:00.330Z,52.88
2022-10-04T13:18:43.918Z,53.52
2022-10-04T13:22:51.400Z,52.45
2022-10-04T13:26:35.470Z,54.02
2022-10-04T13:30:23.670Z,51.73
2022-10-04T13:33:53.542Z,51.44
2022-10-04T13:37:47.318Z,51.78
2022-10-04T13:41:33.226Z,52.22
2022-10-04T13:45:34.833Z,52.28
2022-10-04T13:49:24.237Z,52.57
2022-10-04T13:53:13.194Z,52.65
2022-10-04T13:56:37.469Z,53.65
2022-10-04T14:00:19.818Z,52.96
2022-10-04T14:03:50.298Z,47.79
2022-10-04T14:07:12.339Z,49.81
2022-10-04T14:10:36.902Z,50.16
2022-10-04T14:14:22.570Z,51.30
2022-10-04T14:18:14.633Z,51.19
2022-10-04T14:22:04.759Z,51.78
2022-10-04T14:26:02.806Z,51.89
2022-10-04T14:29:58.567Z,53.34
2022-10-04T14:34:01.705Z,52.35
2022-10-04T14:37:57.248Z,53.16
2022-10-04T14:41:45.533Z,54.79
2022-10-04T14:45:07.248Z,53.97
2022-10-04T14:48:53.650Z,55.03
2022-10-04T14:52:27.360Z,54.20
2022-10-04T14:56:30.249Z,54.57
2022-10-04T14:59:54.839Z,55.03
2022-10-04T15:03:31.649Z,55.67
2022-10-04T15:06:58.301Z,54.75
2022-10-04T15:10:24.957Z,52.41
2022-10-04T15:14:01.268Z,52.07
2022-10-04T15:17:36.512Z,53.49
2022-10-04T15:21:23.835Z,53.81
2022-10-04T15:24:51.072Z,53.74
2022-10-04T15:28:49.308Z,53.92
2022-10-04T15:32:35.262Z,57.02
2022-10-04T15:35:57.575Z,66.50
2022-10-04T15:39:40.592Z,64.77
2022-10-04T15:43:05.094Z,58.84
2022-10-04T15:46:34.121Z,57.10
2022-10-04T15:50:21.316Z,53.05
2022-10-04T15:54:05.155Z,52.88
2022-10-04T15:57:55.366Z,54.22
2022-10-04T16:01:35.632Z,54.96
2022-10-04T16:05:37.509Z,55.69
2022-10-04T16:09:26.228Z,56.65
2022-10-04T16:12:48.463Z,56.87
2022-10-04T16:16:16.256Z,58.27
2022-10-04T16:20:21.359Z,57.91
2022-10-04T16:23:45.822Z,59.88
2022-10-04T16:27:21.921Z,59.83
2022-10-04T16:31:20.086Z,60.34
2022-10-04T16:34:49.720Z,61.09
2022-10-04T16:38:17.036Z,62.05
2022-10-04T16:41:40.584Z,62.45
2022-10-04T16:45:27.523Z,63.03
2022-10-04T16:49:02.305Z,62.75
2022-10-04T16:53:10.705Z,64.01
2022-10-04T16:56:56.447Z,64.02
2022-10-04T17:00:47.970Z,64.53
2022-10-04T17:04:43.657Z,64.48
2022-10-04T17:08:32.747Z,64.73
2022-10-04T17:12:16.163Z,64.98
2022-10-04T17:15:56.986Z,65.42
2022-10-04T17:19:42.467Z,64.42
2022-10-04T17:23:04.020Z,65.74
2022-10-04T17:26:44.455Z,66.54
2022-10-04T17:30:18.573Z,66.84
2022-10-04T17:34:02.105Z,67.04
2022-10-04T17:37:30.288Z,67.49
2022-10-04T17:41:07.977Z,67.50
2022-10-04T17:45:07.779Z,78.10
2022-10-04T17:48:49.957Z,74.44
2022-10-04T17:52:39.964Z,73.85
2022-10-04T17:56:04.984Z,69.98
2022-10-04T17:59:31.266Z,68.21
2022-10-04T18:02:56.031Z,68.06
2022-10-04T18:06:26.019Z,68.55
2022-10-04T18:09:56.098Z,68.35
2022-10-04T18:13:45.452Z,64.94
2022-10-04T18:17:08.947Z,66.06
2022-10-04T18:20:37.268Z,66.88
2022-10-04T18:24:01.838Z,67.78
2022-10-04T18:27:26.928Z,68.12
2022-10-04T18:30:48.532Z,68.77
2022-10-04T18:34:20.233Z,69.34
2022-10-04T18:37:41.852Z,69.80
2022-10-04T18:41:17.894Z,70.16
2022-10-04T18:45:01.280Z,70.87
2022-10-04T18:48:54.531Z,71.36
2022-10-04T18:52:33.468Z,71.88
2022-10-04T18:56:03.673Z,72.61
2022-10-04T19:00:02.890Z,72.80
2022-10-04T19:03:32.543Z,73.35
2022-10-04T19:07:00.594Z,73.18
2022-10-04T19:10:30.905Z,73.29
2022-10-04T19:13:58.360Z,73.34
2022-10-04T19:17:38.392Z,73.48
2022-10-04T19:21:28.454Z,73.66
2022-10-04T19:24:56.317Z,73.70
2022-10-04T19:28:28.275Z,79.05
2022-10-04T19:32:12.637Z,71.16
2022-10-04T19:35:49.752Z,71.96
2022-10-04T19:39:41.088Z,73.08
2022-10-04T19:43:13.144Z,73.98
2022-10-04T19:46:56.316Z,74.42
2022-10-04T19:50:21.320Z,74.43
2022-10-04T19:53:47.088Z,74.45
2022-10-04T19:57:16.125Z,75.33
2022-10-04T20:00:40.450Z,75.52
2022-10-04T20:04:30.058Z,75.53
2022-10-04T20:08:01.479Z,75.40
2022-10-04T20:11:27.711Z,75.27
2022-10-04T20:14:51.475Z,75.22
2022-10-04T20:18:36.601Z,75.06
2022-10-04T20:22:07.519Z,75.56
2022-10-04T20:25:45.574Z,75.53
2022-10-04T20:29:10.356Z,80.49
2022-10-04T20:32:36.358Z,79.55
2022-10-04T20:36:00.393Z,78.26
2022-10-04T20:39:40.356Z,77.04
2022-10-04T20:43:13.912Z,77.58
2022-10-04T20:46:38.340Z,72.35
2022-10-04T20:50:01.776Z,72.72
2022-10-04T20:53:29.549Z,73.35
2022-10-04T20:56:56.219Z,73.79
2022-10-04T21:00:26.728Z,74.01
2022-10-04T21:03:48.392Z,74.49
2022-10-04T21:07:14.935Z,74.85
2022-10-04T21:10:56.419Z,74.74
2022-10-04T21:14:29.294Z,74.62
2022-10-04T21:18:11.443Z,74.90
2022-10-04T21:21:52.178Z,74.78
2022-10-04T21:25:48.603Z,74.93
2022-10-04T21:29:12.271Z,75.36
2022-10-04T21:32:40.259Z,75.30
2022-10-04T21:36:02.546Z,73.77
2022-10-04T21:39:24.583Z,74.75
2022-10-04T21:42:48.560Z,75.23
2022-10-04T21:46:16.469Z,74.81
2022-10-04T21:49:41.086Z,74.78
2022-10-04T21:53:05.006Z,74.93
2022-10-04T21:56:26.555Z,75.99
2022-10-04T21:59:48.098Z,75.95
2022-10-04T22:03:11.727Z,75.91
2022-10-04T22:06:35.805Z,75.75
2022-10-04T22:10:00.321Z,75.83
2022-10-04T22:13:21.859Z,75.69
2022-10-04T22:16:46.235Z,76.37
2022-10-04T22:20:08.319Z,75.05
2022-10-04T22:23:38.219Z,75.30
2022-10-04T22:27:02.381Z,75.98
2022-10-04T22:30:29.956Z,76.15
2022-10-04T22:33:54.758Z,76.22
2022-10-04T22:37:21.707Z,75.24
2022-10-04T22:40:43.391Z,74.96
2022-10-04T22:44:14.759Z,74.99
2022-10-04T22:47:36.414Z,74.48
2022-10-04T22:50:58.147Z,75.30
2022-10-04T22:54:26.123Z,75.88
2022-10-04T22:57:47.808Z,75.65
2022-10-04T23:01:14.853Z,75.76
2022-10-04T23:04:39.594Z,76.13
2022-10-04T23:08:01.367Z,76.51
2022-10-04T23:11:22.883Z,75.97
2022-10-04T23:14:46.671Z,76.38
2022-10-04T23:18:15.757Z,76.42
2022-10-04T23:21:38.785Z,76.30
2022-10-04T23:25:11.257Z,76.60
2022-10-04T23:28:32.874Z,76.64
2022-10-04T23:31:57.698Z,76.28
2022-10-04T23:35:26.008Z,75.53
2022-10-04T23:38:55.955Z,75.52
2022-10-04T23:42:20.582Z,75.67
2022-10-04T23:45:44.645Z,75.69
2022-10-04T23:49:13.510Z,75.90
2022-10-04T23:52:41.366Z,75.78
2022-10-04T23:56:12.001Z,77.11
2022-10-04T23:59:35.881Z,77.07
